Terminal Aerodrome Forecast
Issued by NWS Shreveport, LA

Home | Current Version | Previous Version | Text Only | Print | Product List | Glossary On
Versions: 1 2 3 4 5 6 7 8 9 10 11 12 13 14 15 16 17 18 19 20 21 22
000
FTUS44 KSHV 260520
TAFSHV
TAF
KSHV 260520Z 2606/2706 VRB03KT P6SM SKC
     FM261600 18006KT P6SM FEW250
     FM262100 17012KT P6SM BKN250
     FM270300 17010KT P6SM BKN060=

USA.gov is the U.S. government's official web portal to all federal, state and local government web resources and services.